Time;durP1;ratioP1;P1;durP2;ratioP2;P2;SDS_P1;SDS_P2;PMS_P1;PMS_P2;Temp;Humidity;BMP_temperature;BMP_pressure;BME280_temperature;BME280_humidity;BME280_pressure;Samples;Min_cycle;Max_cycle;Signal;HPM_P1;HPM_P2
2022/01/04 00:00:49;;;;;;;1.35;0.65;;;;;;;;;;4972722;28;20029;-76
2022/01/04 00:03:14;;;;;;;2.03;0.70;;;;;;;;;;4973540;28;20034;-78
2022/01/04 00:05:39;;;;;;;1.85;0.80;;;;;;;;;;4963271;28;20109;-78
2022/01/04 00:08:08;;;;;;;1.98;0.70;;;;;;;;;;4976339;28;20023;-77
2022/01/04 00:10:33;;;;;;;1.88;0.57;;;;;;;;;;4965360;28;20082;-76
2022/01/04 00:15:44;;;;;;;2.33;0.63;;;;;;;;;;4967706;28;20148;-78
2022/01/04 00:18:09;;;;;;;1.92;0.80;;;;;;;;;;4970712;28;20031;-78
2022/01/04 00:20:34;;;;;;;1.48;0.60;;;;;;;;;;4971059;28;20030;-76
2022/01/04 00:23:00;;;;;;;1.63;0.70;;;;;;;;;;4968541;28;20043;-78
2022/01/04 00:25:25;;;;;;;1.40;0.50;;;;;;;;;;4967646;28;20038;-76
2022/01/04 00:27:50;;;;;;;1.45;0.75;;;;;;;;;;4970753;28;20090;-75
2022/01/04 00:30:16;;;;;;;1.45;0.60;;;;;;;;;;4971143;28;20065;-76
2022/01/04 00:32:41;;;;;;;2.45;0.93;;;;;;;;;;4969466;28;20054;-76
2022/01/04 00:35:06;;;;;;;1.80;0.60;;;;;;;;;;4970156;28;20027;-77
2022/01/04 00:37:32;;;;;;;1.15;0.50;;;;;;;;;;4970669;28;20034;-76
2022/01/04 00:39:58;;;;;;;3.17;0.70;;;;;;;;;;4971549;28;20030;-76
2022/01/04 00:42:23;;;;;;;1.85;0.60;;;;;;;;;;4968226;28;20073;-76
2022/01/04 00:44:48;;;;;;;1.35;0.50;;;;;;;;;;4970888;28;20023;-76
2022/01/04 00:47:13;;;;;;;1.92;0.65;;;;;;;;;;4972985;28;20113;-77
2022/01/04 00:49:38;;;;;;;1.45;0.70;;;;;;;;;;4967118;28;20042;-77
2022/01/04 00:52:04;;;;;;;1.33;0.70;;;;;;;;;;4972896;28;20026;-77
2022/01/04 00:54:29;;;;;;;2.13;0.60;;;;;;;;;;4968233;28;20050;-75
2022/01/04 00:56:54;;;;;;;0.65;0.50;;;;;;;;;;4971428;28;20026;-74
2022/01/04 00:59:20;;;;;;;1.33;0.60;;;;;;;;;;4965842;28;20027;-75
2022/01/04 01:01:46;;;;;;;1.48;0.55;;;;;;;;;;4968567;28;20057;-74
2022/01/04 01:04:12;;;;;;;1.65;0.60;;;;;;;;;;4966390;28;20019;-75
2022/01/04 01:06:37;;;;;;;1.08;0.47;;;;;;;;;;4967218;28;20389;-75
2022/01/04 01:09:03;;;;;;;1.02;0.55;;;;;;;;;;4969266;28;20367;-76
2022/01/04 01:11:28;;;;;;;2.72;0.82;;;;;;;;;;4962138;28;20034;-76
2022/01/04 01:13:53;;;;;;;1.08;0.70;;;;;;;;;;4970139;28;20112;-76
2022/01/04 01:16:19;;;;;;;1.75;0.50;;;;;;;;;;4969517;28;21039;-76
2022/01/04 01:18:44;;;;;;;1.90;0.70;;;;;;;;;;4971268;28;20023;-75
2022/01/04 01:21:09;;;;;;;0.93;0.45;;;;;;;;;;4970971;28;20023;-75
2022/01/04 01:23:35;;;;;;;1.65;0.60;;;;;;;;;;4963514;28;20092;-76
2022/01/04 01:26:01;;;;;;;1.48;0.70;;;;;;;;;;4967421;28;20037;-75
2022/01/04 01:28:26;;;;;;;1.92;0.65;;;;;;;;;;4961577;28;20114;-75
2022/01/04 01:30:52;;;;;;;1.08;0.60;;;;;;;;;;4962710;28;20347;-74
2022/01/04 01:33:17;;;;;;;1.58;0.50;;;;;;;;;;4968526;28;20027;-77
2022/01/04 01:35:43;;;;;;;1.20;0.60;;;;;;;;;;4970860;28;20101;-76
2022/01/04 01:38:09;;;;;;;2.15;0.50;;;;;;;;;;4972080;28;20035;-76
2022/01/04 01:40:35;;;;;;;1.77;0.60;;;;;;;;;;4971584;28;20027;-75
2022/01/04 01:43:00;;;;;;;2.67;0.70;;;;;;;;;;4951191;28;20047;-77
2022/01/04 01:45:25;;;;;;;1.08;0.43;;;;;;;;;;4968304;28;20031;-75
2022/01/04 01:47:51;;;;;;;1.25;0.50;;;;;;;;;;4966362;28;20038;-74
2022/01/04 01:50:17;;;;;;;3.22;1.00;;;;;;;;;;4968098;28;20031;-75
2022/01/04 01:52:44;;;;;;;1.02;0.60;;;;;;;;;;4965622;28;20142;-76
2022/01/04 01:55:10;;;;;;;1.10;0.60;;;;;;;;;;4970033;28;20022;-76
2022/01/04 01:57:35;;;;;;;1.92;0.75;;;;;;;;;;4965160;28;20030;-75
2022/01/04 02:00:01;;;;;;;1.20;0.50;;;;;;;;;;4961485;28;20073;-75
2022/01/04 02:02:26;;;;;;;1.85;0.52;;;;;;;;;;4964531;28;20045;-76
2022/01/04 02:04:51;;;;;;;2.13;0.75;;;;;;;;;;4968664;28;20387;-77
2022/01/04 02:07:18;;;;;;;1.55;0.70;;;;;;;;;;4965678;28;20026;-75
2022/01/04 02:09:52;;;;;;;1.63;0.60;;;;;;;;;;4970117;28;20018;-76
2022/01/04 02:12:18;;;;;;;1.50;0.60;;;;;;;;;;4966859;28;20024;-77
2022/01/04 02:14:49;;;;;;;2.67;0.55;;;;;;;;;;4962773;28;20051;-76
2022/01/04 02:17:14;;;;;;;1.25;0.55;;;;;;;;;;4963157;28;20455;-76
2022/01/04 02:19:40;;;;;;;0.90;0.50;;;;;;;;;;4965505;28;20042;-75
2022/01/04 02:22:05;;;;;;;1.08;0.50;;;;;;;;;;4961107;28;20112;-78
2022/01/04 02:24:32;;;;;;;0.85;0.50;;;;;;;;;;4961206;28;20118;-76
2022/01/04 02:26:58;;;;;;;0.95;0.50;;;;;;;;;;4959473;28;20026;-79
2022/01/04 02:29:23;;;;;;;1.20;0.60;;;;;;;;;;4968453;28;20334;-77
2022/01/04 02:31:49;;;;;;;1.80;0.57;;;;;;;;;;4967228;28;20019;-76
2022/01/04 02:34:14;;;;;;;2.85;0.93;;;;;;;;;;4968188;28;20875;-76
2022/01/04 02:36:40;;;;;;;1.15;0.50;;;;;;;;;;4962926;28;20026;-78
2022/01/04 02:39:05;;;;;;;1.52;0.60;;;;;;;;;;4965830;28;20030;-76
2022/01/04 02:41:30;;;;;;;0.68;0.43;;;;;;;;;;4969925;28;20053;-77
2022/01/04 02:43:55;;;;;;;1.52;0.50;;;;;;;;;;4965033;28;20038;-76
2022/01/04 02:46:20;;;;;;;1.20;0.60;;;;;;;;;;4967817;28;20502;-75
2022/01/04 02:48:46;;;;;;;1.15;0.50;;;;;;;;;;4969201;28;20050;-76
2022/01/04 02:51:11;;;;;;;1.00;0.50;;;;;;;;;;4969374;28;20058;-77
2022/01/04 02:53:36;;;;;;;3.90;0.43;;;;;;;;;;4963773;28;20027;-76
2022/01/04 02:56:02;;;;;;;1.30;0.52;;;;;;;;;;4966934;28;20118;-77
2022/01/04 02:58:27;;;;;;;1.67;0.40;;;;;;;;;;4967374;28;20027;-77
2022/01/04 03:00:52;;;;;;;1.17;0.60;;;;;;;;;;4967630;28;20202;-76
2022/01/04 03:03:17;;;;;;;2.15;0.60;;;;;;;;;;4969301;28;20076;-78
2022/01/04 03:05:43;;;;;;;1.42;0.50;;;;;;;;;;4967256;28;20077;-77
2022/01/04 03:08:08;;;;;;;0.30;0.30;;;;;;;;;;4965136;28;20023;-76
2022/01/04 03:10:34;;;;;;;0.85;0.47;;;;;;;;;;4970657;28;20037;-76
2022/01/04 03:13:02;;;;;;;1.48;0.60;;;;;;;;;;4965391;28;20049;-81
2022/01/04 03:15:27;;;;;;;1.02;0.50;;;;;;;;;;4960406;28;20051;-76
2022/01/04 03:17:52;;;;;;;2.67;0.60;;;;;;;;;;4965518;28;20035;-75
2022/01/04 03:20:18;;;;;;;1.33;0.43;;;;;;;;;;4968347;28;20402;-76
2022/01/04 03:22:43;;;;;;;0.73;0.50;;;;;;;;;;4961563;28;20030;-77
2022/01/04 03:25:08;;;;;;;0.98;0.52;;;;;;;;;;4965242;28;20363;-77
2022/01/04 03:27:33;;;;;;;1.33;0.50;;;;;;;;;;4964344;28;20031;-75
2022/01/04 03:29:59;;;;;;;0.93;0.40;;;;;;;;;;4955290;28;20410;-77
2022/01/04 03:32:24;;;;;;;0.77;0.50;;;;;;;;;;4963288;28;20535;-75
2022/01/04 03:34:49;;;;;;;2.22;0.98;;;;;;;;;;4967855;28;20026;-77
2022/01/04 03:37:14;;;;;;;0.90;0.40;;;;;;;;;;4967114;28;20035;-75
2022/01/04 03:39:39;;;;;;;3.20;0.47;;;;;;;;;;4973245;28;20102;-77
2022/01/04 03:42:05;;;;;;;1.73;0.38;;;;;;;;;;4972842;28;20039;-77
2022/01/04 03:44:30;;;;;;;2.25;0.60;;;;;;;;;;4972686;28;20335;-76
2022/01/04 03:46:55;;;;;;;0.75;0.60;;;;;;;;;;4966705;28;20031;-77
2022/01/04 03:49:21;;;;;;;1.00;0.60;;;;;;;;;;4969315;28;20682;-75
2022/01/04 03:51:46;;;;;;;1.05;0.47;;;;;;;;;;4973394;28;20019;-76
2022/01/04 03:54:12;;;;;;;1.23;0.68;;;;;;;;;;4971301;28;20070;-77
2022/01/04 03:56:37;;;;;;;1.33;0.57;;;;;;;;;;4976589;28;20027;-77
2022/01/04 03:59:03;;;;;;;0.73;0.47;;;;;;;;;;4960109;28;20026;-77
2022/01/04 04:01:28;;;;;;;2.60;0.47;;;;;;;;;;4972099;28;20023;-75
2022/01/04 04:03:53;;;;;;;0.90;0.57;;;;;;;;;;4973054;28;20041;-76
2022/01/04 04:06:19;;;;;;;1.83;0.65;;;;;;;;;;4968452;28;20031;-76
2022/01/04 04:08:44;;;;;;;1.15;0.60;;;;;;;;;;4969019;28;20035;-78
2022/01/04 04:11:10;;;;;;;2.17;0.50;;;;;;;;;;4968315;28;20726;-76
2022/01/04 04:13:35;;;;;;;0.55;0.50;;;;;;;;;;4970509;28;20375;-77
2022/01/04 04:16:00;;;;;;;0.90;0.50;;;;;;;;;;4974317;28;20063;-77
2022/01/04 04:18:25;;;;;;;1.85;0.60;;;;;;;;;;4950766;28;20077;-77
2022/01/04 04:20:50;;;;;;;3.00;0.52;;;;;;;;;;4971168;28;20034;-76
2022/01/04 04:23:16;;;;;;;2.60;0.68;;;;;;;;;;4971793;28;20118;-76
2022/01/04 04:25:41;;;;;;;0.70;0.47;;;;;;;;;;4968965;28;20382;-77
2022/01/04 04:28:07;;;;;;;1.75;0.60;;;;;;;;;;4970438;28;20539;-78
2022/01/04 04:30:32;;;;;;;1.38;0.52;;;;;;;;;;4963616;28;20043;-76
2022/01/04 04:32:57;;;;;;;1.38;0.60;;;;;;;;;;4971548;28;20198;-76
2022/01/04 04:35:22;;;;;;;2.22;1.00;;;;;;;;;;4966244;28;20081;-78
2022/01/04 04:37:47;;;;;;;1.48;0.90;;;;;;;;;;4970900;28;20027;-76
2022/01/04 04:40:13;;;;;;;1.88;0.90;;;;;;;;;;4972161;28;20118;-77
2022/01/04 04:42:38;;;;;;;1.70;0.70;;;;;;;;;;4973289;28;20030;-76
2022/01/04 04:45:04;;;;;;;1.80;0.90;;;;;;;;;;4969007;28;20027;-75
2022/01/04 04:47:29;;;;;;;2.17;0.90;;;;;;;;;;4969632;28;20054;-77
2022/01/04 04:49:54;;;;;;;3.88;0.90;;;;;;;;;;4971587;28;20029;-77
2022/01/04 04:52:20;;;;;;;2.35;0.73;;;;;;;;;;4969910;28;20060;-75
2022/01/04 04:54:45;;;;;;;2.50;0.90;;;;;;;;;;4971170;28;20050;-76
2022/01/04 04:57:10;;;;;;;1.75;0.80;;;;;;;;;;4964696;28;20037;-78
2022/01/04 04:59:35;;;;;;;1.95;1.00;;;;;;;;;;4970596;28;20122;-76
2022/01/04 05:02:01;;;;;;;1.92;1.00;;;;;;;;;;4970733;28;20122;-77
2022/01/04 05:04:26;;;;;;;1.38;0.88;;;;;;;;;;4971234;28;20027;-76
2022/01/04 05:06:53;;;;;;;1.90;0.80;;;;;;;;;;4970174;28;20841;-76
2022/01/04 05:09:18;;;;;;;1.35;0.70;;;;;;;;;;4966083;28;20034;-77
2022/01/04 05:11:43;;;;;;;1.30;0.80;;;;;;;;;;4966628;28;20027;-77
2022/01/04 05:14:08;;;;;;;1.70;1.00;;;;;;;;;;4966852;28;20109;-76
2022/01/04 05:16:34;;;;;;;2.35;0.98;;;;;;;;;;4970092;28;20461;-76
2022/01/04 05:18:59;;;;;;;2.22;0.93;;;;;;;;;;4968194;28;20069;-76
2022/01/04 05:21:24;;;;;;;2.58;0.90;;;;;;;;;;4967376;28;20034;-76
2022/01/04 05:23:50;;;;;;;1.15;0.80;;;;;;;;;;4965647;28;20041;-75
2022/01/04 05:26:15;;;;;;;4.82;0.90;;;;;;;;;;4968252;28;20114;-76
2022/01/04 05:28:43;;;;;;;2.25;0.90;;;;;;;;;;4972168;28;20042;-76
2022/01/04 05:31:08;;;;;;;2.22;1.00;;;;;;;;;;4970219;28;20034;-76
2022/01/04 05:33:33;;;;;;;2.78;1.00;;;;;;;;;;4964192;28;20034;-76
2022/01/04 05:35:59;;;;;;;3.13;1.30;;;;;;;;;;4965539;28;20559;-76
2022/01/04 05:38:24;;;;;;;2.63;0.95;;;;;;;;;;4968575;28;20026;-76
2022/01/04 05:40:50;;;;;;;3.63;1.30;;;;;;;;;;4969095;28;20049;-76
2022/01/04 05:43:15;;;;;;;2.60;1.17;;;;;;;;;;4966560;28;20050;-76
2022/01/04 05:45:40;;;;;;;2.50;1.20;;;;;;;;;;4961731;28;20030;-76
2022/01/04 05:48:05;;;;;;;2.08;1.00;;;;;;;;;;4969697;28;20130;-73
2022/01/04 05:50:31;;;;;;;2.28;0.98;;;;;;;;;;4969248;28;20031;-76
2022/01/04 05:52:56;;;;;;;4.60;1.00;;;;;;;;;;4964439;28;20047;-76
2022/01/04 05:55:21;;;;;;;2.92;1.02;;;;;;;;;;4965027;28;20042;-77
2022/01/04 05:57:47;;;;;;;4.10;0.90;;;;;;;;;;4970608;28;20033;-77
2022/01/04 06:00:12;;;;;;;3.47;1.10;;;;;;;;;;4968121;28;20386;-77
2022/01/04 06:02:38;;;;;;;2.83;1.00;;;;;;;;;;4969678;28;20035;-76
2022/01/04 06:05:03;;;;;;;1.48;0.82;;;;;;;;;;4969278;28;20018;-77
2022/01/04 06:07:28;;;;;;;2.58;1.00;;;;;;;;;;4970069;28;20029;-75
2022/01/04 06:09:54;;;;;;;1.92;0.95;;;;;;;;;;4963239;28;20094;-78
2022/01/04 06:14:51;;;;;;;2.53;1.40;;;;;;;;;;4969650;28;20054;-77
2022/01/04 06:17:17;;;;;;;2.55;1.60;;;;;;;;;;4968696;28;20105;-76
2022/01/04 06:19:42;;;;;;;4.05;1.75;;;;;;;;;;4969451;28;20018;-76
2022/01/04 06:22:07;;;;;;;3.95;1.20;;;;;;;;;;4964049;28;20031;-75
2022/01/04 06:24:33;;;;;;;3.03;1.33;;;;;;;;;;4969763;28;20026;-76
2022/01/04 06:26:58;;;;;;;3.63;1.50;;;;;;;;;;4969506;28;20492;-77
2022/01/04 06:29:23;;;;;;;2.15;1.30;;;;;;;;;;4970405;28;20462;-76
2022/01/04 06:31:49;;;;;;;2.95;0.90;;;;;;;;;;4966632;28;20423;-76
2022/01/04 06:34:14;;;;;;;2.63;1.13;;;;;;;;;;4968063;28;20061;-77
2022/01/04 06:36:39;;;;;;;2.70;1.13;;;;;;;;;;4968112;28;20107;-77
2022/01/04 06:39:05;;;;;;;1.85;1.05;;;;;;;;;;4963356;28;20029;-75
2022/01/04 06:41:30;;;;;;;2.60;1.23;;;;;;;;;;4969545;28;20034;-75
2022/01/04 06:43:55;;;;;;;1.67;0.88;;;;;;;;;;4968458;28;20456;-75
2022/01/04 06:46:21;;;;;;;2.45;1.10;;;;;;;;;;4969890;28;20050;-76
2022/01/04 06:48:46;;;;;;;3.67;1.50;;;;;;;;;;4951628;28;20494;-75
2022/01/04 06:51:11;;;;;;;3.03;1.52;;;;;;;;;;4966394;28;20050;-78
2022/01/04 06:53:36;;;;;;;4.95;1.40;;;;;;;;;;4966499;28;20084;-80
2022/01/04 06:56:02;;;;;;;2.58;1.02;;;;;;;;;;4969339;28;20297;-78
2022/01/04 06:58:27;;;;;;;2.20;1.10;;;;;;;;;;4964781;28;20207;-82
2022/01/04 07:00:52;;;;;;;3.08;1.30;;;;;;;;;;4969767;28;20066;-79
2022/01/04 07:03:17;;;;;;;2.47;1.10;;;;;;;;;;4968075;28;20038;-80
2022/01/04 07:05:43;;;;;;;2.50;1.02;;;;;;;;;;4976565;28;20038;-78
2022/01/04 07:08:08;;;;;;;2.25;1.05;;;;;;;;;;4979221;28;20027;-78
2022/01/04 07:10:33;;;;;;;1.98;1.13;;;;;;;;;;4967363;28;20027;-78
2022/01/04 07:12:58;;;;;;;3.55;1.30;;;;;;;;;;4970758;28;20116;-78
2022/01/04 07:15:23;;;;;;;3.65;1.30;;;;;;;;;;4970350;28;20113;-77
2022/01/04 07:17:49;;;;;;;5.70;1.40;;;;;;;;;;4969577;28;20562;-76
2022/01/04 07:20:14;;;;;;;2.80;1.30;;;;;;;;;;4966580;28;20033;-77
2022/01/04 07:22:39;;;;;;;2.97;1.33;;;;;;;;;;4970645;28;20037;-77
2022/01/04 07:25:05;;;;;;;3.63;1.30;;;;;;;;;;4964611;28;20019;-77
2022/01/04 07:27:30;;;;;;;4.07;1.40;;;;;;;;;;4969971;28;20122;-76
2022/01/04 07:29:55;;;;;;;5.30;1.50;;;;;;;;;;4970732;28;20046;-77
2022/01/04 07:32:20;;;;;;;3.80;1.30;;;;;;;;;;4973588;28;20026;-77
2022/01/04 07:34:46;;;;;;;4.47;1.25;;;;;;;;;;4971872;28;20015;-77
2022/01/04 07:37:11;;;;;;;2.50;1.05;;;;;;;;;;4971366;28;20021;-80
2022/01/04 07:39:36;;;;;;;3.92;1.42;;;;;;;;;;4969196;28;20027;-77
2022/01/04 07:42:02;;;;;;;2.55;1.30;;;;;;;;;;4969242;28;20067;-77
2022/01/04 07:44:27;;;;;;;3.75;1.55;;;;;;;;;;4970490;28;20110;-78
2022/01/04 07:46:53;;;;;;;2.05;1.25;;;;;;;;;;4968072;28;20594;-76
2022/01/04 07:49:19;;;;;;;6.45;1.40;;;;;;;;;;4959962;28;20504;-76
2022/01/04 07:51:44;;;;;;;4.53;1.20;;;;;;;;;;4945402;28;20558;-74
2022/01/04 07:54:09;;;;;;;4.72;1.33;;;;;;;;;;4968354;28;20046;-77
2022/01/04 07:56:34;;;;;;;1.77;0.90;;;;;;;;;;4946624;28;20035;-77
2022/01/04 07:59:01;;;;;;;1.65;0.77;;;;;;;;;;4968525;28;20031;-77
2022/01/04 08:01:29;;;;;;;2.15;1.00;;;;;;;;;;4943745;28;20045;-74
2022/01/04 08:03:54;;;;;;;1.20;0.50;;;;;;;;;;4965675;28;20471;-76
2022/01/04 08:06:19;;;;;;;1.20;0.70;;;;;;;;;;4961729;28;20038;-75
2022/01/04 08:08:45;;;;;;;2.08;0.50;;;;;;;;;;4962133;28;20046;-75
2022/01/04 08:11:10;;;;;;;1.38;0.50;;;;;;;;;;4961872;28;20474;-66
2022/01/04 08:13:35;;;;;;;2.65;0.40;;;;;;;;;;4968317;28;20027;-65
2022/01/04 08:16:00;;;;;;;1.48;0.50;;;;;;;;;;4965279;28;20047;-64
2022/01/04 08:18:26;;;;;;;2.70;0.50;;;;;;;;;;4961361;28;20024;-66
2022/01/04 08:20:56;;;;;;;0.43;0.40;;;;;;;;;;4968273;28;20023;-65
2022/01/04 08:23:21;;;;;;;1.65;0.40;;;;;;;;;;4959179;28;20038;-66
2022/01/04 08:25:46;;;;;;;2.08;0.40;;;;;;;;;;4967174;28;20023;-66
2022/01/04 08:28:11;;;;;;;0.70;0.40;;;;;;;;;;4970951;28;20474;-65
2022/01/04 08:30:37;;;;;;;0.80;0.40;;;;;;;;;;4967974;28;20030;-65
2022/01/04 08:33:02;;;;;;;0.73;0.47;;;;;;;;;;4962773;28;20023;-64
2022/01/04 08:35:27;;;;;;;1.05;0.47;;;;;;;;;;4946866;28;20070;-65
2022/01/04 08:37:52;;;;;;;0.60;0.30;;;;;;;;;;4964370;28;20371;-65
2022/01/04 08:40:18;;;;;;;0.65;0.35;;;;;;;;;;4970024;28;20030;-65
2022/01/04 08:42:43;;;;;;;1.45;0.35;;;;;;;;;;4972149;28;20417;-67
2022/01/04 08:45:09;;;;;;;1.90;0.40;;;;;;;;;;4967350;28;20458;-66
2022/01/04 08:47:34;;;;;;;1.92;0.80;;;;;;;;;;4970245;28;20035;-65
2022/01/04 08:49:59;;;;;;;2.65;0.50;;;;;;;;;;4968585;28;20031;-65
2022/01/04 08:52:26;;;;;;;0.70;0.50;;;;;;;;;;4970496;28;20177;-65
2022/01/04 08:54:51;;;;;;;1.15;0.60;;;;;;;;;;4963046;28;20031;-65
2022/01/04 08:57:16;;;;;;;1.27;0.63;;;;;;;;;;4967989;28;20086;-66
2022/01/04 08:59:42;;;;;;;0.75;0.40;;;;;;;;;;4969022;28;20023;-67
2022/01/04 09:02:07;;;;;;;1.45;0.55;;;;;;;;;;4966455;28;20055;-65
2022/01/04 09:04:32;;;;;;;0.73;0.50;;;;;;;;;;4965193;28;20029;-64
2022/01/04 09:06:57;;;;;;;1.35;0.60;;;;;;;;;;4963475;28;20374;-65
2022/01/04 09:09:22;;;;;;;1.42;0.60;;;;;;;;;;4968598;28;20428;-65
2022/01/04 09:11:47;;;;;;;3.88;0.98;;;;;;;;;;4969058;28;20023;-66
2022/01/04 09:14:24;;;;;;;3.25;1.27;;;;;;;;;;4967888;28;20077;-65
2022/01/04 09:19:34;;;;;;;2.97;1.27;;;;;;;;;;4963041;28;20237;-67
2022/01/04 09:22:00;;;;;;;2.80;1.05;;;;;;;;;;4965718;28;20027;-64
2022/01/04 09:24:25;;;;;;;2.78;1.08;;;;;;;;;;4966863;28;20410;-65
2022/01/04 09:26:50;;;;;;;2.58;1.20;;;;;;;;;;4967344;28;20034;-67
2022/01/04 09:29:19;;;;;;;2.17;1.25;;;;;;;;;;4966395;28;20022;-65
2022/01/04 09:31:49;;;;;;;3.33;1.20;;;;;;;;;;4964164;28;20019;-65
2022/01/04 09:34:15;;;;;;;1.83;0.95;;;;;;;;;;4967090;28;20042;-66
2022/01/04 09:36:40;;;;;;;2.15;1.00;;;;;;;;;;4968595;28;20553;-66
2022/01/04 09:39:10;;;;;;;2.08;1.05;;;;;;;;;;4970805;28;20030;-66
2022/01/04 09:41:35;;;;;;;2.67;1.10;;;;;;;;;;4969181;28;20030;-65
2022/01/04 09:44:01;;;;;;;3.38;1.20;;;;;;;;;;4969960;28;20043;-65
2022/01/04 09:46:27;;;;;;;2.50;1.00;;;;;;;;;;4970374;28;20031;-66
2022/01/04 09:48:52;;;;;;;2.85;1.05;;;;;;;;;;4964234;28;20169;-65
2022/01/04 09:51:18;;;;;;;3.30;1.00;;;;;;;;;;4965412;28;20415;-67
2022/01/04 09:53:43;;;;;;;3.50;1.50;;;;;;;;;;4969363;28;20289;-66
2022/01/04 09:56:08;;;;;;;2.60;1.23;;;;;;;;;;4972243;28;20021;-64
2022/01/04 09:58:33;;;;;;;2.20;1.23;;;;;;;;;;4971496;28;20037;-66
2022/01/04 10:00:59;;;;;;;1.75;1.02;;;;;;;;;;4971682;28;20478;-67
2022/01/04 10:03:29;;;;;;;1.52;1.00;;;;;;;;;;4972383;28;20130;-65
2022/01/04 10:06:01;;;;;;;2.00;0.90;;;;;;;;;;4969846;28;20022;-66
2022/01/04 10:08:26;;;;;;;1.80;0.80;;;;;;;;;;4967890;28;20555;-65
2022/01/04 10:10:59;;;;;;;0.88;0.57;;;;;;;;;;4970902;28;20147;-65
2022/01/04 10:13:28;;;;;;;1.08;0.60;;;;;;;;;;4968903;28;20053;-64
2022/01/04 10:15:53;;;;;;;1.00;0.57;;;;;;;;;;4970351;28;20051;-66
2022/01/04 10:18:21;;;;;;;1.08;0.57;;;;;;;;;;4961626;28;20497;-65
2022/01/04 10:20:47;;;;;;;0.73;0.40;;;;;;;;;;4966973;28;20018;-65
2022/01/04 10:23:13;;;;;;;0.95;0.50;;;;;;;;;;4970740;28;20045;-65
2022/01/04 10:25:38;;;;;;;1.23;0.70;;;;;;;;;;4966619;28;20060;-65
2022/01/04 10:28:04;;;;;;;0.90;0.60;;;;;;;;;;4970758;28;20054;-66
2022/01/04 10:30:31;;;;;;;0.90;0.40;;;;;;;;;;4968014;28;20118;-66
2022/01/04 10:33:06;;;;;;;1.15;0.73;;;;;;;;;;4969449;28;20025;-67
2022/01/04 10:35:37;;;;;;;1.25;0.60;;;;;;;;;;4969609;28;20062;-66
2022/01/04 10:38:11;;;;;;;0.82;0.50;;;;;;;;;;4970814;28;20022;-66
2022/01/04 10:40:37;;;;;;;0.50;0.50;;;;;;;;;;4970184;28;20030;-66
2022/01/04 10:43:10;;;;;;;1.95;1.02;;;;;;;;;;4967494;28;20038;-68
2022/01/04 10:45:36;;;;;;;0.50;0.30;;;;;;;;;;4974345;28;20022;-67
2022/01/04 10:48:13;;;;;;;0.93;0.47;;;;;;;;;;4968016;28;20050;-65
2022/01/04 10:50:39;;;;;;;1.17;0.50;;;;;;;;;;4967234;28;20030;-66
2022/01/04 10:53:04;;;;;;;2.05;0.60;;;;;;;;;;4970038;28;20035;-66
2022/01/04 10:55:36;;;;;;;2.05;0.40;;;;;;;;;;4969795;28;20134;-66
2022/01/04 10:58:02;;;;;;;0.77;0.50;;;;;;;;;;4970059;28;20390;-65
2022/01/04 11:00:27;;;;;;;1.20;0.50;;;;;;;;;;4969308;28;20041;-66
2022/01/04 11:02:53;;;;;;;0.50;0.43;;;;;;;;;;4969767;28;20043;-66
2022/01/04 11:05:20;;;;;;;0.90;0.43;;;;;;;;;;4970346;28;20014;-67
2022/01/04 11:07:57;;;;;;;1.33;0.45;;;;;;;;;;4969884;28;20019;-67
2022/01/04 11:10:22;;;;;;;0.63;0.50;;;;;;;;;;4965319;28;20031;-66
2022/01/04 11:12:48;;;;;;;0.60;0.50;;;;;;;;;;4969043;28;20027;-66
2022/01/04 11:15:13;;;;;;;0.82;0.45;;;;;;;;;;4965942;28;20053;-67
2022/01/04 11:17:38;;;;;;;0.55;0.40;;;;;;;;;;4966851;28;20058;-66
2022/01/04 11:20:04;;;;;;;1.70;0.50;;;;;;;;;;4969196;28;20030;-67
2022/01/04 11:22:29;;;;;;;1.00;0.47;;;;;;;;;;4969339;28;20031;-66
2022/01/04 11:24:54;;;;;;;0.40;0.40;;;;;;;;;;4970378;28;20393;-67
2022/01/04 11:27:20;;;;;;;2.33;0.70;;;;;;;;;;4969143;28;20051;-66
2022/01/04 11:29:47;;;;;;;0.82;0.40;;;;;;;;;;4969689;28;20082;-67
2022/01/04 11:32:16;;;;;;;0.90;0.57;;;;;;;;;;4969771;28;20414;-67
2022/01/04 11:34:44;;;;;;;1.33;0.50;;;;;;;;;;4963913;28;20058;-67
2022/01/04 11:37:16;;;;;;;0.95;0.43;;;;;;;;;;4968943;28;20490;-67
2022/01/04 11:39:41;;;;;;;0.70;0.47;;;;;;;;;;4969123;28;20026;-66
2022/01/04 11:42:10;;;;;;;1.25;0.70;;;;;;;;;;4968848;28;20031;-66
2022/01/04 11:44:43;;;;;;;1.58;0.60;;;;;;;;;;4969250;28;20478;-67
2022/01/04 11:47:16;;;;;;;1.00;0.40;;;;;;;;;;4968742;28;20031;-68
2022/01/04 11:50:00;;;;;;;0.70;0.52;;;;;;;;;;4967293;28;20031;-67
2022/01/04 11:52:39;;;;;;;0.73;0.43;;;;;;;;;;4966901;28;20525;-67
2022/01/04 11:55:24;;;;;;;0.80;0.60;;;;;;;;;;4969601;28;20058;-67
2022/01/04 11:57:50;;;;;;;1.88;0.60;;;;;;;;;;4971389;28;20030;-67
2022/01/04 12:00:29;;;;;;;1.10;0.32;;;;;;;;;;4971918;28;20033;-66
2022/01/04 12:03:01;;;;;;;1.67;0.67;;;;;;;;;;4968639;28;20031;-68
2022/01/04 12:05:26;;;;;;;0.77;0.43;;;;;;;;;;4972718;28;20270;-66
2022/01/04 12:07:52;;;;;;;0.93;0.50;;;;;;;;;;4972439;28;20775;-66
2022/01/04 12:10:17;;;;;;;1.02;0.50;;;;;;;;;;4972844;28;20026;-67
2022/01/04 12:12:55;;;;;;;0.80;0.55;;;;;;;;;;4966370;28;20117;-66
2022/01/04 12:15:32;;;;;;;1.73;0.63;;;;;;;;;;4970611;28;20304;-67
2022/01/04 12:17:57;;;;;;;0.68;0.45;;;;;;;;;;4969218;28;20065;-69
2022/01/04 12:20:42;;;;;;;0.80;0.40;;;;;;;;;;4971293;28;20054;-66
2022/01/04 12:23:25;;;;;;;0.47;0.40;;;;;;;;;;4970384;28;20122;-65
2022/01/04 12:26:02;;;;;;;1.30;0.60;;;;;;;;;;4971847;28;20034;-67
2022/01/04 12:28:28;;;;;;;1.85;0.63;;;;;;;;;;4969938;28;20525;-67
2022/01/04 12:31:13;;;;;;;1.27;0.70;;;;;;;;;;4968673;28;20023;-66
2022/01/04 12:33:39;;;;;;;2.60;0.70;;;;;;;;;;4965537;28;20015;-64
2022/01/04 12:36:04;;;;;;;2.33;0.70;;;;;;;;;;4971757;28;20034;-64
2022/01/04 12:38:32;;;;;;;0.85;0.52;;;;;;;;;;4968375;28;20031;-65
2022/01/04 12:40:58;;;;;;;0.95;0.50;;;;;;;;;;4969930;28;20098;-66
2022/01/04 12:43:23;;;;;;;0.70;0.60;;;;;;;;;;4971571;28;20030;-66
2022/01/04 12:45:55;;;;;;;0.75;0.63;;;;;;;;;;4972015;28;20033;-65
2022/01/04 12:48:40;;;;;;;0.80;0.60;;;;;;;;;;4970640;28;20054;-65
2022/01/04 12:51:44;;;;;;;1.08;0.60;;;;;;;;;;4967052;28;20026;-65
2022/01/04 12:54:23;;;;;;;1.98;0.60;;;;;;;;;;4910310;29;20035;-66
2022/01/04 12:56:56;;;;;;;2.08;0.70;;;;;;;;;;4905844;29;20095;-66
2022/01/04 12:59:37;;;;;;;1.10;0.77;;;;;;;;;;4905102;29;20073;-66
2022/01/04 13:02:15;;;;;;;1.00;0.73;;;;;;;;;;4908666;29;20177;-66
2022/01/04 13:04:45;;;;;;;0.80;0.60;;;;;;;;;;4910502;29;20051;-65
2022/01/04 13:07:15;;;;;;;1.25;0.50;;;;;;;;;;4910536;29;20059;-67
2022/01/04 13:09:41;;;;;;;1.15;0.82;;;;;;;;;;4910715;29;20038;-65
2022/01/04 13:12:07;;;;;;;1.25;0.65;;;;;;;;;;4906921;29;20508;-66
2022/01/04 13:14:33;;;;;;;1.08;0.60;;;;;;;;;;4911513;29;20100;-65
2022/01/04 13:16:59;;;;;;;1.33;0.60;;;;;;;;;;4909111;29;20855;-65
2022/01/04 13:19:25;;;;;;;7.97;0.82;;;;;;;;;;4906237;29;20036;-66
2022/01/04 13:21:54;;;;;;;1.05;0.60;;;;;;;;;;4906511;29;20032;-66
2022/01/04 13:24:33;;;;;;;0.75;0.60;;;;;;;;;;4918244;28;20043;-66
2022/01/04 13:27:17;;;;;;;1.37;0.60;;;;;;;;;;4971104;28;20023;-66
2022/01/04 13:29:47;;;;;;;1.17;0.73;;;;;;;;;;4965821;28;20081;-65
2022/01/04 13:32:12;;;;;;;1.23;0.85;;;;;;;;;;4970266;28;20031;-65
2022/01/04 13:34:38;;;;;;;1.63;0.80;;;;;;;;;;4971286;28;20031;-65
2022/01/04 13:37:03;;;;;;;1.42;0.60;;;;;;;;;;4969751;28;20015;-66
2022/01/04 13:39:28;;;;;;;1.10;0.65;;;;;;;;;;4969528;28;20037;-67
2022/01/04 13:41:56;;;;;;;1.75;0.60;;;;;;;;;;4966099;28;20018;-64
2022/01/04 13:44:22;;;;;;;1.40;0.77;;;;;;;;;;4954709;28;20034;-65
2022/01/04 13:46:47;;;;;;;1.20;0.70;;;;;;;;;;4970523;28;20019;-65
2022/01/04 13:49:12;;;;;;;3.22;0.90;;;;;;;;;;4970207;28;20042;-67
2022/01/04 13:51:38;;;;;;;1.58;1.00;;;;;;;;;;4970961;28;20072;-66
2022/01/04 13:54:11;;;;;;;2.25;1.05;;;;;;;;;;4970499;28;20220;-66
2022/01/04 13:56:36;;;;;;;2.50;1.10;;;;;;;;;;4966619;28;20026;-65
2022/01/04 13:59:01;;;;;;;3.33;1.05;;;;;;;;;;4964620;28;20018;-67
2022/01/04 14:01:37;;;;;;;2.65;1.20;;;;;;;;;;4969238;28;20081;-66
2022/01/04 14:04:09;;;;;;;2.65;1.10;;;;;;;;;;4967863;28;20031;-67
2022/01/04 14:06:35;;;;;;;2.95;1.10;;;;;;;;;;4970546;28;20053;-65
2022/01/04 14:09:02;;;;;;;1.67;1.00;;;;;;;;;;4969747;28;20063;-65
2022/01/04 14:11:28;;;;;;;2.45;1.10;;;;;;;;;;4970171;28;20023;-65
2022/01/04 14:13:54;;;;;;;2.83;1.17;;;;;;;;;;4969372;28;20030;-66
2022/01/04 14:16:20;;;;;;;3.28;1.02;;;;;;;;;;4971055;28;20193;-67
2022/01/04 14:19:04;;;;;;;1.80;1.10;;;;;;;;;;4969260;28;20050;-69
2022/01/04 14:21:37;;;;;;;1.92;0.98;;;;;;;;;;4969283;28;20129;-65
2022/01/04 14:24:04;;;;;;;2.22;1.02;;;;;;;;;;4970338;28;20042;-65
2022/01/04 14:26:29;;;;;;;4.30;0.90;;;;;;;;;;4962684;28;20023;-65
2022/01/04 14:28:55;;;;;;;1.85;0.90;;;;;;;;;;4969311;28;20086;-64
2022/01/04 14:31:20;;;;;;;1.63;0.90;;;;;;;;;;4970290;28;20026;-66
2022/01/04 14:33:45;;;;;;;2.17;1.10;;;;;;;;;;4969098;28;20026;-66
2022/01/04 14:36:10;;;;;;;2.25;0.88;;;;;;;;;;4970245;28;20031;-66
2022/01/04 14:38:36;;;;;;;2.28;0.93;;;;;;;;;;4969067;28;20034;-64
2022/01/04 14:41:01;;;;;;;2.00;0.90;;;;;;;;;;4966281;28;20023;-65
2022/01/04 14:43:26;;;;;;;3.22;1.42;;;;;;;;;;4968632;28;20046;-66
2022/01/04 14:45:52;;;;;;;2.05;1.15;;;;;;;;;;4968211;28;20052;-66
2022/01/04 14:48:18;;;;;;;2.28;0.98;;;;;;;;;;4968221;28;20728;-66